createdAt,value
2023-01-10T00:00:26.042Z,1.40
2023-01-10T00:04:28.723Z,1.33
2023-01-10T00:08:30.506Z,1.03
2023-01-10T00:12:51.141Z,1.30
2023-01-10T00:16:52.855Z,1.43
2023-01-10T00:20:54.545Z,1.30
2023-01-10T00:24:56.279Z,1.40
2023-01-10T00:28:58.035Z,1.47
2023-01-10T00:32:59.801Z,1.40
2023-01-10T00:37:01.620Z,1.60
2023-01-10T00:41:03.936Z,1.77
2023-01-10T00:45:06.256Z,1.50
2023-01-10T00:49:13.867Z,2.13
2023-01-10T00:53:15.862Z,1.93
2023-01-10T00:57:17.602Z,1.60
2023-01-10T01:01:19.415Z,1.80
2023-01-10T01:05:21.266Z,1.50
2023-01-10T01:09:23.031Z,1.60
2023-01-10T01:13:25.676Z,1.70
2023-01-10T01:17:27.414Z,1.60
2023-01-10T01:21:29.154Z,1.67
2023-01-10T01:25:31.268Z,1.60
2023-01-10T01:29:43.106Z,1.60
2023-01-10T01:33:46.406Z,1.73
2023-01-10T01:37:48.151Z,1.50
2023-01-10T01:41:58.590Z,1.40
2023-01-10T01:46:02.687Z,1.57
2023-01-10T01:50:05.106Z,1.70
2023-01-10T01:54:09.152Z,1.80
2023-01-10T01:58:15.741Z,1.87
2023-01-10T02:02:21.699Z,2.00
2023-01-10T02:06:23.992Z,2.10
2023-01-10T02:10:38.599Z,1.70
2023-01-10T02:14:40.308Z,2.27
2023-01-10T02:18:42.586Z,2.07
2023-01-10T02:23:13.605Z,2.20
2023-01-10T02:27:53.690Z,1.73
2023-01-10T02:32:16.736Z,1.80
2023-01-10T02:36:44.596Z,2.00
2023-01-10T02:41:06.265Z,2.00
2023-01-10T02:45:19.429Z,2.13
2023-01-10T02:49:21.246Z,2.13
2023-01-10T02:53:42.005Z,2.10
2023-01-10T02:57:59.139Z,2.27
2023-01-10T03:02:28.292Z,2.40
2023-01-10T03:06:50.869Z,2.20
2023-01-10T03:11:05.650Z,2.60
2023-01-10T03:15:08.220Z,2.37
2023-01-10T03:19:24.254Z,2.40
2023-01-10T03:23:26.001Z,2.37
2023-01-10T03:27:51.946Z,2.50
2023-01-10T03:31:57.360Z,2.50
2023-01-10T03:36:28.172Z,2.30
2023-01-10T03:40:43.280Z,2.20
2023-01-10T03:44:56.029Z,2.30
2023-01-10T03:48:57.790Z,2.63
2023-01-10T03:52:59.513Z,2.80
2023-01-10T03:57:02.858Z,2.53
2023-01-10T04:01:05.017Z,2.70
2023-01-10T04:05:07.384Z,2.87
2023-01-10T04:09:09.348Z,2.53
2023-01-10T04:13:11.143Z,2.20
2023-01-10T04:17:14.371Z,2.53
2023-01-10T04:21:16.151Z,2.13
2023-01-10T04:25:17.929Z,2.10
2023-01-10T04:29:19.680Z,2.60
2023-01-10T04:33:21.475Z,2.60
2023-01-10T04:37:23.177Z,3.20
2023-01-10T04:41:24.916Z,3.20
2023-01-10T04:45:26.642Z,3.23
2023-01-10T04:49:28.538Z,2.90
2023-01-10T04:53:30.254Z,3.80
2023-01-10T04:57:32.249Z,3.33
2023-01-10T05:01:36.377Z,3.57
2023-01-10T05:05:38.461Z,3.47
2023-01-10T05:09:40.280Z,2.93
2023-01-10T05:13:42.137Z,3.03
2023-01-10T05:17:43.992Z,3.10
2023-01-10T05:21:45.827Z,3.13
2023-01-10T05:25:47.673Z,2.90
2023-01-10T05:29:49.656Z,3.23
2023-01-10T05:33:51.655Z,3.00
2023-01-10T05:37:54.093Z,2.60
2023-01-10T05:41:55.896Z,2.80
2023-01-10T05:45:57.693Z,4.07
2023-01-10T05:49:59.478Z,3.83
2023-01-10T05:54:01.208Z,3.60
2023-01-10T05:58:03.336Z,3.50
2023-01-10T06:02:05.090Z,3.90
2023-01-10T06:06:07.164Z,3.50
2023-01-10T06:10:09.631Z,3.20
2023-01-10T06:14:20.244Z,3.40
2023-01-10T06:18:24.089Z,3.50
2023-01-10T06:22:29.192Z,3.67
2023-01-10T06:26:31.276Z,3.53
2023-01-10T06:30:35.393Z,3.77
2023-01-10T06:34:37.221Z,3.90
2023-01-10T06:38:41.676Z,3.80
2023-01-10T06:42:44.461Z,3.40
2023-01-10T06:46:46.508Z,3.43
2023-01-10T06:50:50.302Z,2.97
2023-01-10T06:54:53.190Z,3.97
2023-01-10T06:58:54.952Z,3.77
2023-01-10T07:03:01.126Z,3.10
2023-01-10T07:07:02.824Z,3.00
2023-01-10T07:11:04.815Z,3.50
2023-01-10T07:15:09.676Z,2.93
2023-01-10T07:19:13.779Z,3.10
2023-01-10T07:23:15.594Z,3.60
2023-01-10T07:27:17.322Z,3.30
2023-01-10T07:31:19.958Z,2.87
2023-01-10T07:35:22.578Z,3.30
2023-01-10T07:39:24.308Z,3.00
2023-01-10T07:43:26.125Z,3.40
2023-01-10T07:47:28.667Z,3.00
2023-01-10T07:51:30.415Z,3.50
2023-01-10T07:55:34.676Z,3.40
2023-01-10T07:59:36.401Z,3.23
2023-01-10T08:03:38.289Z,3.30
2023-01-10T08:07:40.284Z,3.57
2023-01-10T08:11:43.304Z,3.57
2023-01-10T08:15:47.146Z,3.10
2023-01-10T08:19:49.046Z,3.10
2023-01-10T08:23:51.679Z,3.17
2023-01-10T08:27:53.437Z,3.10
2023-01-10T08:31:55.409Z,3.47
2023-01-10T08:35:57.207Z,3.57
2023-01-10T08:39:58.942Z,3.87
2023-01-10T08:44:00.916Z,3.87
2023-01-10T08:48:03.487Z,3.30
2023-01-10T08:52:06.394Z,3.00
2023-01-10T08:56:08.558Z,3.23
2023-01-10T09:00:12.332Z,2.83
2023-01-10T09:04:14.233Z,2.43
2023-01-10T09:08:15.957Z,2.30
2023-01-10T09:12:36.075Z,2.00
2023-01-10T09:16:37.831Z,1.70
2023-01-10T09:20:40.856Z,1.87
2023-01-10T09:24:44.008Z,1.77
2023-01-10T09:28:48.661Z,1.47
2023-01-10T09:32:53.991Z,1.27
2023-01-10T09:36:55.779Z,1.77
2023-01-10T09:41:26.359Z,1.60
2023-01-10T09:45:51.190Z,1.90
2023-01-10T09:50:05.368Z,2.30
2023-01-10T09:54:26.043Z,2.57
2023-01-10T09:58:31.190Z,2.83
2023-01-10T10:02:39.718Z,2.93
2023-01-10T10:06:41.452Z,3.00
2023-01-10T10:10:52.427Z,2.50
2023-01-10T10:15:24.948Z,2.60
2023-01-10T10:19:39.099Z,2.90
2023-01-10T10:24:18.164Z,2.70
2023-01-10T10:29:04.721Z,2.27
2023-01-10T10:33:48.921Z,2.10
2023-01-10T10:37:52.387Z,2.10
2023-01-10T10:41:54.136Z,1.83
2023-01-10T10:46:05.711Z,1.90
2023-01-10T10:50:19.626Z,1.60
2023-01-10T10:54:21.479Z,1.43
2023-01-10T10:58:23.386Z,1.70
2023-01-10T11:02:27.850Z,2.07
2023-01-10T11:06:33.189Z,2.50
2023-01-10T11:10:36.093Z,1.67
2023-01-10T11:14:47.144Z,2.40
2023-01-10T11:18:49.331Z,2.80
2023-01-10T11:22:53.456Z,2.73
2023-01-10T11:26:57.948Z,3.00
2023-01-10T11:31:00.442Z,3.27
2023-01-10T11:35:33.343Z,3.40
2023-01-10T11:39:35.327Z,2.80
2023-01-10T11:43:40.723Z,2.60
2023-01-10T11:47:54.658Z,2.70
2023-01-10T11:52:27.217Z,2.60
2023-01-10T11:56:32.348Z,2.20
2023-01-10T12:00:41.020Z,2.33
2023-01-10T12:04:45.263Z,2.37
2023-01-10T12:08:47.764Z,2.13
2023-01-10T12:12:59.632Z,2.43
2023-01-10T12:17:03.532Z,2.60
2023-01-10T12:21:05.803Z,2.40
2023-01-10T12:25:32.242Z,2.43
2023-01-10T12:29:37.538Z,2.57
2023-01-10T12:33:47.784Z,1.80
2023-01-10T12:38:19.014Z,2.40
2023-01-10T12:43:14.151Z,2.33
2023-01-10T12:47:25.005Z,2.10
2023-01-10T12:51:26.951Z,1.90
2023-01-10T12:55:34.412Z,2.50
2023-01-10T12:59:39.890Z,2.17
2023-01-10T13:03:41.837Z,2.37
2023-01-10T13:07:43.919Z,2.20
2023-01-10T13:12:37.036Z,2.07
2023-01-10T13:16:58.140Z,2.00
2023-01-10T13:21:15.613Z,2.47
2023-01-10T13:25:30.348Z,1.90
2023-01-10T13:29:40.646Z,1.50
2023-01-10T13:33:56.584Z,1.77
2023-01-10T13:37:59.028Z,1.93
2023-01-10T13:42:19.249Z,1.90
2023-01-10T13:46:24.067Z,1.63
2023-01-10T13:50:26.160Z,1.80
2023-01-10T13:54:30.883Z,1.57
2023-01-10T13:59:00.944Z,1.40
2023-01-10T14:03:02.860Z,1.77
2023-01-10T14:07:44.450Z,1.60
2023-01-10T14:11:58.701Z,1.60
2023-01-10T14:16:00.574Z,1.80
2023-01-10T14:20:16.082Z,1.87
2023-01-10T14:24:43.324Z,1.70
2023-01-10T14:28:45.055Z,1.83
2023-01-10T14:32:51.121Z,1.80
2023-01-10T14:37:10.888Z,1.80
2023-01-10T14:41:18.451Z,2.43
2023-01-10T14:45:48.030Z,1.87
2023-01-10T14:49:51.278Z,1.80
2023-01-10T14:54:01.643Z,1.63
2023-01-10T14:58:03.554Z,1.80
2023-01-10T15:02:25.513Z,1.63
2023-01-10T15:06:27.584Z,2.07
2023-01-10T15:10:38.485Z,1.93
2023-01-10T15:14:40.285Z,2.37
2023-01-10T15:18:44.725Z,2.07
2023-01-10T15:22:55.482Z,1.90
2023-01-10T15:27:05.442Z,2.37
2023-01-10T15:31:08.069Z,3.50
2023-01-10T15:35:11.028Z,2.00
2023-01-10T15:39:19.996Z,2.53
2023-01-10T15:43:25.543Z,1.90
2023-01-10T15:47:44.002Z,1.77
2023-01-10T15:51:47.572Z,2.00
2023-01-10T15:56:10.756Z,1.57
2023-01-10T16:00:17.589Z,1.80
2023-01-10T16:04:19.536Z,2.13
2023-01-10T16:08:25.069Z,2.50
2023-01-10T16:12:55.480Z,2.57
2023-01-10T16:16:57.268Z,2.20
2023-01-10T16:21:01.198Z,1.90
2023-01-10T16:25:02.920Z,2.17
2023-01-10T16:29:04.661Z,2.37
2023-01-10T16:33:23.400Z,1.50
2023-01-10T16:37:27.655Z,2.30
2023-01-10T16:41:47.694Z,2.57
2023-01-10T16:46:00.449Z,2.67
2023-01-10T16:50:02.517Z,2.80
2023-01-10T16:54:04.489Z,3.10
2023-01-10T16:58:06.990Z,4.77
2023-01-10T17:02:17.796Z,2.57
2023-01-10T17:06:19.747Z,2.30
2023-01-10T17:10:21.491Z,2.37
2023-01-10T17:14:23.753Z,2.10
2023-01-10T17:18:28.647Z,2.30
2023-01-10T17:22:30.645Z,2.30
2023-01-10T17:26:32.540Z,2.57
2023-01-10T17:30:34.548Z,2.40
2023-01-10T17:34:38.657Z,2.57
2023-01-10T17:38:43.032Z,2.43
2023-01-10T17:42:47.453Z,2.43
2023-01-10T17:46:49.416Z,2.40
2023-01-10T17:50:59.523Z,2.60
2023-01-10T17:55:03.436Z,2.50
2023-01-10T17:59:05.358Z,2.50
2023-01-10T18:03:07.699Z,2.00
2023-01-10T18:07:13.118Z,2.53
2023-01-10T18:11:15.065Z,1.90
2023-01-10T18:15:17.026Z,2.20
2023-01-10T18:19:18.869Z,2.57
2023-01-10T18:23:25.063Z,2.97
2023-01-10T18:27:29.555Z,2.70
2023-01-10T18:31:31.542Z,2.67
2023-01-10T18:35:33.502Z,2.50
2023-01-10T18:39:35.501Z,1.87
2023-01-10T18:43:37.549Z,1.90
2023-01-10T18:47:39.688Z,1.53
2023-01-10T18:51:41.754Z,1.87
2023-01-10T18:55:58.286Z,1.60
2023-01-10T19:00:00.216Z,1.90
2023-01-10T19:04:04.512Z,1.50
2023-01-10T19:08:07.076Z,1.87
2023-01-10T19:12:09.004Z,1.97
2023-01-10T19:16:18.789Z,2.10
2023-01-10T19:20:23.907Z,2.30
2023-01-10T19:24:40.349Z,2.23
2023-01-10T19:28:53.424Z,2.67
2023-01-10T19:33:01.652Z,2.30
2023-01-10T19:37:03.542Z,2.80
2023-01-10T19:41:08.651Z,2.40
2023-01-10T19:45:10.762Z,2.67
2023-01-10T19:49:40.900Z,2.47
2023-01-10T19:53:49.135Z,2.20
2023-01-10T19:57:57.142Z,2.30
2023-01-10T20:02:07.466Z,2.20
2023-01-10T20:06:19.352Z,1.87
2023-01-10T20:10:33.598Z,1.60
2023-01-10T20:14:35.629Z,1.50
2023-01-10T20:18:44.769Z,1.80
2023-01-10T20:22:50.177Z,1.90
2023-01-10T20:26:55.257Z,2.07
2023-01-10T20:31:03.741Z,2.27
2023-01-10T20:35:12.514Z,2.50
2023-01-10T20:39:16.840Z,2.00
2023-01-10T20:43:26.167Z,2.60
2023-01-10T20:47:34.443Z,2.13
2023-01-10T20:51:37.973Z,1.73
2023-01-10T20:55:40.332Z,2.00
2023-01-10T20:59:42.272Z,2.20
2023-01-10T21:03:45.639Z,1.77
2023-01-10T21:07:48.597Z,1.60
2023-01-10T21:12:02.114Z,1.83
2023-01-10T21:16:09.748Z,2.20
2023-01-10T21:20:12.338Z,1.63
2023-01-10T21:24:15.821Z,1.67
2023-01-10T21:28:18.034Z,1.73
2023-01-10T21:32:19.823Z,1.60
2023-01-10T21:36:21.569Z,2.03
2023-01-10T21:40:24.750Z,2.00
2023-01-10T21:44:28.957Z,1.50
2023-01-10T21:49:03.305Z,1.97
2023-01-10T21:53:05.192Z,1.50
2023-01-10T21:57:07.060Z,1.73
2023-01-10T22:01:08.894Z,1.80
2023-01-10T22:05:11.400Z,1.57
2023-01-10T22:09:15.623Z,1.80
2023-01-10T22:13:17.460Z,1.70
2023-01-10T22:17:19.275Z,1.70
2023-01-10T22:21:21.494Z,1.80
2023-01-10T22:25:23.335Z,2.10
2023-01-10T22:29:26.276Z,2.10
2023-01-10T22:33:29.639Z,2.03
2023-01-10T22:37:31.386Z,2.50
2023-01-10T22:41:33.447Z,2.60
2023-01-10T22:45:35.380Z,2.73
2023-01-10T22:49:37.211Z,2.37
2023-01-10T22:53:39.169Z,3.43
2023-01-10T22:57:47.197Z,2.87
2023-01-10T23:01:49.662Z,3.17
2023-01-10T23:05:56.422Z,3.50
2023-01-10T23:09:58.219Z,3.97
2023-01-10T23:14:00.027Z,3.77
2023-01-10T23:18:01.915Z,4.27
2023-01-10T23:22:03.736Z,3.90
2023-01-10T23:26:07.840Z,3.87
2023-01-10T23:30:10.730Z,4.30
2023-01-10T23:34:12.468Z,4.53
2023-01-10T23:38:14.169Z,4.83
2023-01-10T23:42:15.928Z,4.83
2023-01-10T23:46:17.961Z,5.20
2023-01-10T23:50:21.509Z,5.50
2023-01-10T23:54:23.493Z,5.80
2023-01-10T23:58:25.211Z,5.77
